Hauptseite
METAR-TAF:

METAR-TAF

Flughäfen :

RAF Scampton

Scampton, England

Breite: 53-18-27N, Länge: 000-33-03W, Höhe: 62 m

Beobachtung

Neuester Wetterbericht von vor 1 Stunde und 27 Minuten, um 02:50 UTC
Wind 4 kt aus Ost
Temperatur 9°C
Luftfeuchtigkeit 93%
Luftdruck 1036 hPa
Sichtweite 10 km oder mehr

METAR: EGXP 280250Z AUTO 09004KT 9999 // BKN006/// 09/08 Q1036

Zeit: 05:17 (04:17 UTC)

Prognose

Neuester Wetterbericht von vor 17 Stunden und 48 Minuten, um 10:29 UTC
Gültige Prognose vom 27 um 12 UTC bis 27 um 21 UTC
Wind 8 kt aus Nord/Nordwest
Sichtweite 10 km oder mehr
Leicht bewölkt in der Höhe von 4000 ft

TAF: EGXP 271029Z 2712/2721 33008KT 9999 FEW040

Wetterbeobachtungen und Prognosen von mehr als 4000 Flughäfen (METAR und TAF Bericht).

Die verfügbaren Stationen werden durch gelbe und rote Markierungen auf der Karte dargestellt.

Führen Sie die Maus auf sie, um den Namen der Station zu sehen.

Darauf klicken, um die Beobachtung von Wetterbeobachtungen und Prognosen zu sehen.

Um die Karte zu ändern : klicken Sie auf den grünen Tasten mit einem schwarzen Kreuz Zum Vergrößern, auf den grünen Button mit einem Gedankenstrich zu verkleinern, oder auf die grünen Pfeile für benachbarte Karten.


METAR-TAF: